Time;durP1;ratioP1;P1;durP2;ratioP2;P2;SDS_P1;SDS_P2;PMS_P1;PMS_P2;Temp;Humidity;BMP_temperature;BMP_pressure;BME280_temperature;BME280_humidity;BME280_pressure;Samples;Min_cycle;Max_cycle;Signal;HPM_P1;HPM_P2
2021/03/05 00:01:12;;;;;;;;;;;18.90;50.00;;;;;;4901687;29;20014;-90
2021/03/05 00:03:39;;;;;;;;;;;18.80;50.00;;;;;;4870351;29;19999;-91
2021/03/05 00:06:05;;;;;;;;;;;18.80;50.00;;;;;;4902862;29;20014;-90
2021/03/05 00:08:32;;;;;;;;;;;18.80;49.90;;;;;;4901668;29;19995;-90
2021/03/05 00:11:00;;;;;;;;;;;18.80;49.80;;;;;;4913074;29;19956;-87
2021/03/05 00:13:27;;;;;;;;;;;18.80;49.80;;;;;;4906447;29;19937;-92
2021/03/05 00:15:55;;;;;;;;;;;18.80;49.70;;;;;;4921304;29;19970;-91
2021/03/05 00:18:41;;;;;;;;;;;18.80;49.60;;;;;;4929692;28;19928;-91
2021/03/05 00:21:07;;;;;;;;;;;18.80;49.60;;;;;;4896426;29;19931;-90
2021/03/05 00:23:34;;;;;;;;;;;18.70;49.60;;;;;;4886719;29;20023;-89
2021/03/05 00:26:00;;;;;;;;;;;18.70;49.60;;;;;;4908547;29;19969;-90
2021/03/05 00:28:26;;;;;;;;;;;18.70;50.20;;;;;;4900208;29;20446;-88
2021/03/05 00:30:54;;;;;;;;;;;18.70;49.70;;;;;;4890569;29;19927;-88
2021/03/05 00:33:20;;;;;;;;;;;18.70;49.60;;;;;;4898294;29;20610;-88
2021/03/05 00:35:53;;;;;;;;;;;18.60;49.50;;;;;;4900557;29;20442;-89
2021/03/05 00:38:20;;;;;;;;;;;18.60;49.40;;;;;;4901428;29;20106;-89
2021/03/05 00:40:47;;;;;;;;;;;18.60;49.40;;;;;;4902910;29;19935;-90
2021/03/05 00:43:13;;;;;;;;;;;18.60;49.30;;;;;;4903248;28;19936;-90
2021/03/05 00:45:39;;;;;;;;;;;18.60;49.50;;;;;;4889292;29;20297;-90
2021/03/05 00:48:06;;;;;;;;;;;18.50;49.30;;;;;;4905222;29;19927;-90
2021/03/05 00:50:33;;;;;;;;;;;18.60;49.30;;;;;;4905184;29;19965;-90
2021/03/05 00:52:59;;;;;;;;;;;18.50;49.30;;;;;;4886034;29;20026;-90
2021/03/05 00:55:26;;;;;;;;;;;18.50;49.40;;;;;;4907627;29;19927;-90
2021/03/05 00:57:53;;;;;;;;;;;18.50;49.40;;;;;;4881733;29;19943;-90
2021/03/05 01:00:19;;;;;;;;;;;18.50;49.40;;;;;;4888383;29;19943;-90
2021/03/05 01:02:46;;;;;;;;;;;18.50;49.40;;;;;;4896290;29;19935;-90
2021/03/05 01:05:13;;;;;;;;;;;18.40;49.30;;;;;;4897439;29;20001;-90
2021/03/05 01:07:39;;;;;;;;;;;18.40;49.30;;;;;;4889893;29;19937;-90
2021/03/05 01:10:06;;;;;;;;;;;18.40;49.40;;;;;;4901284;29;19963;-90
2021/03/05 01:12:33;;;;;;;;;;;18.40;49.30;;;;;;4891483;29;19975;-90
2021/03/05 01:15:00;;;;;;;;;;;18.40;49.20;;;;;;4899029;29;19943;-90
2021/03/05 01:17:26;;;;;;;;;;;18.40;49.20;;;;;;4888582;29;20380;-90
2021/03/05 01:19:53;;;;;;;;;;;18.40;49.30;;;;;;4899191;29;19931;-91
2021/03/05 01:22:20;;;;;;;;;;;18.40;49.30;;;;;;4894314;29;20192;-91
2021/03/05 01:24:47;;;;;;;;;;;18.40;49.40;;;;;;4901130;29;19927;-90
2021/03/05 01:27:14;;;;;;;;;;;18.30;49.30;;;;;;4892689;29;20015;-91
2021/03/05 01:29:40;;;;;;;;;;;18.30;49.20;;;;;;4883243;29;19928;-93
2021/03/05 01:32:10;;;;;;;;;;;18.30;49.30;;;;;;4893135;29;20409;-91
2021/03/05 01:34:36;;;;;;;;;;;18.30;49.20;;;;;;4881478;29;19951;-91
2021/03/05 01:37:03;;;;;;;;;;;18.30;49.60;;;;;;4895241;29;19931;-90
2021/03/05 01:39:29;;;;;;;;;;;18.30;49.40;;;;;;4871862;29;20256;-90
2021/03/05 01:41:56;;;;;;;;;;;18.30;49.30;;;;;;4891226;29;19993;-91
2021/03/05 01:44:22;;;;;;;;;;;18.30;49.30;;;;;;4878445;29;19936;-91
2021/03/05 01:46:50;;;;;;;;;;;18.30;49.30;;;;;;4891911;29;20255;-90
2021/03/05 01:49:21;;;;;;;;;;;18.20;49.30;;;;;;4875311;29;19928;-89
2021/03/05 01:51:48;;;;;;;;;;;18.20;49.30;;;;;;4879464;29;19932;-92
2021/03/05 01:54:14;;;;;;;;;;;18.20;49.30;;;;;;4881207;29;19927;-91
2021/03/05 01:56:41;;;;;;;;;;;18.20;49.30;;;;;;4892534;29;19959;-91
2021/03/05 01:59:12;;;;;;;;;;;18.20;49.20;;;;;;4882494;29;19971;-93
2021/03/05 02:01:39;;;;;;;;;;;18.20;49.30;;;;;;4875265;29;19927;-93
2021/03/05 02:04:07;;;;;;;;;;;18.20;49.30;;;;;;4873393;29;19931;-93
2021/03/05 02:06:40;;;;;;;;;;;18.20;49.40;;;;;;4865052;29;19934;-92
2021/03/05 02:09:17;;;;;;;;;;;18.20;49.30;;;;;;4891596;29;19934;-93
2021/03/05 02:11:43;;;;;;;;;;;18.20;49.10;;;;;;4891090;29;19983;-90
2021/03/05 02:14:10;;;;;;;;;;;18.20;49.10;;;;;;4894974;29;20300;-90
2021/03/05 02:16:55;;;;;;;;;;;18.10;48.90;;;;;;4893275;29;20026;-89
2021/03/05 02:19:33;;;;;;;;;;;18.10;49.00;;;;;;4895481;29;21534;-91
2021/03/05 02:22:20;;;;;;;;;;;18.10;49.10;;;;;;4861548;29;20376;-88
2021/03/05 02:24:49;;;;;;;;;;;18.10;49.00;;;;;;4894360;29;20349;-89
2021/03/05 02:27:37;;;;;;;;;;;18.10;48.90;;;;;;4897423;29;19986;-91
2021/03/05 02:30:22;;;;;;;;;;;18.10;48.80;;;;;;4910934;29;19991;-91
2021/03/05 02:33:00;;;;;;;;;;;18.10;48.90;;;;;;4914114;29;21441;-92
2021/03/05 02:35:30;;;;;;;;;;;18.10;48.90;;;;;;4917574;29;20348;-91
2021/03/05 02:38:03;;;;;;;;;;;18.10;48.80;;;;;;4891506;29;19987;-90
2021/03/05 02:40:34;;;;;;;;;;;18.10;48.70;;;;;;4912550;29;20010;-90
2021/03/05 02:43:05;;;;;;;;;;;18.00;48.60;;;;;;4889194;29;20384;-89
2021/03/05 02:45:33;;;;;;;;;;;18.10;48.60;;;;;;4909727;29;19927;-90
2021/03/05 02:48:08;;;;;;;;;;;18.00;48.70;;;;;;4887666;29;20332;-90
2021/03/05 02:50:36;;;;;;;;;;;18.00;48.60;;;;;;4914014;29;19934;-88
2021/03/05 02:53:04;;;;;;;;;;;18.00;48.60;;;;;;4889360;29;20007;-89
2021/03/05 02:55:31;;;;;;;;;;;18.00;48.50;;;;;;4915674;29;19981;-90
2021/03/05 02:57:58;;;;;;;;;;;18.00;48.50;;;;;;4907101;29;19927;-90
2021/03/05 03:00:26;;;;;;;;;;;18.00;48.50;;;;;;4914069;29;19915;-91
2021/03/05 03:02:53;;;;;;;;;;;18.00;48.50;;;;;;4894482;29;19943;-90
2021/03/05 03:05:20;;;;;;;;;;;18.00;48.50;;;;;;4912734;29;19935;-90
2021/03/05 03:07:48;;;;;;;;;;;18.00;48.20;;;;;;4902668;29;20392;-91
2021/03/05 03:10:14;;;;;;;;;;;18.00;48.30;;;;;;4911340;29;19935;-90
2021/03/05 03:12:42;;;;;;;;;;;17.90;48.20;;;;;;4903196;29;19928;-90
2021/03/05 03:15:12;;;;;;;;;;;17.90;48.20;;;;;;4896846;29;19942;-91
2021/03/05 03:17:41;;;;;;;;;;;17.90;48.20;;;;;;4910760;29;21383;-90
2021/03/05 03:20:09;;;;;;;;;;;17.90;48.20;;;;;;4906343;29;19934;-90
2021/03/05 03:22:35;;;;;;;;;;;17.90;48.10;;;;;;4895835;29;20026;-89
2021/03/05 03:25:02;;;;;;;;;;;17.90;48.10;;;;;;4894011;29;19935;-90
2021/03/05 03:27:28;;;;;;;;;;;17.90;48.00;;;;;;4905697;29;20350;-90
2021/03/05 03:29:55;;;;;;;;;;;17.90;48.10;;;;;;4887433;29;19927;-90
2021/03/05 03:32:22;;;;;;;;;;;17.90;48.10;;;;;;4871657;29;20393;-90
2021/03/05 03:34:48;;;;;;;;;;;17.80;47.90;;;;;;4886384;29;19959;-91
2021/03/05 03:37:15;;;;;;;;;;;17.90;48.00;;;;;;4874096;29;19928;-91
2021/03/05 03:39:42;;;;;;;;;;;17.90;48.10;;;;;;4888969;29;19966;-90
2021/03/05 03:42:08;;;;;;;;;;;17.80;47.90;;;;;;4891503;29;19927;-91
2021/03/05 03:44:34;;;;;;;;;;;17.80;48.00;;;;;;4888719;29;19915;-91
2021/03/05 03:47:01;;;;;;;;;;;17.80;47.80;;;;;;4892074;29;19938;-89
2021/03/05 03:49:27;;;;;;;;;;;17.80;48.40;;;;;;4886329;29;20278;-89
2021/03/05 03:51:59;;;;;;;;;;;17.80;47.80;;;;;;4882545;29;20030;-90
2021/03/05 03:54:26;;;;;;;;;;;17.80;47.80;;;;;;4889573;29;19937;-90
2021/03/05 03:56:54;;;;;;;;;;;17.80;47.80;;;;;;4876895;29;19934;-90
2021/03/05 03:59:22;;;;;;;;;;;17.80;47.70;;;;;;4889520;29;20035;-90
2021/03/05 04:01:54;;;;;;;;;;;17.70;47.70;;;;;;4891432;29;19931;-91
2021/03/05 04:04:21;;;;;;;;;;;17.80;47.80;;;;;;4876782;29;19936;-89
2021/03/05 04:06:48;;;;;;;;;;;17.80;47.80;;;;;;4883755;29;19927;-88
2021/03/05 04:09:15;;;;;;;;;;;17.80;47.70;;;;;;4890472;29;19916;-88
2021/03/05 04:11:41;;;;;;;;;;;17.80;47.80;;;;;;4871744;29;19934;-87
2021/03/05 04:14:08;;;;;;;;;;;17.70;47.70;;;;;;4871922;29;19999;-87
2021/03/05 04:16:35;;;;;;;;;;;17.70;47.70;;;;;;4854143;29;19996;-90
2021/03/05 04:19:03;;;;;;;;;;;17.70;47.60;;;;;;4878954;29;19935;-89
2021/03/05 04:21:34;;;;;;;;;;;17.70;47.70;;;;;;4886243;29;19975;-88
2021/03/05 04:24:00;;;;;;;;;;;17.70;47.60;;;;;;4875224;29;19936;-89
2021/03/05 04:26:27;;;;;;;;;;;17.70;47.70;;;;;;4888102;29;19932;-88
2021/03/05 04:28:54;;;;;;;;;;;17.70;47.60;;;;;;4882919;29;19950;-89
2021/03/05 04:31:21;;;;;;;;;;;17.70;48.30;;;;;;4872547;29;19924;-88
2021/03/05 04:33:47;;;;;;;;;;;17.70;47.70;;;;;;4854297;29;19939;-89
2021/03/05 04:36:14;;;;;;;;;;;17.60;47.60;;;;;;4881613;29;20007;-87
2021/03/05 04:38:56;;;;;;;;;;;17.60;47.50;;;;;;4876761;29;19934;-89
2021/03/05 04:41:22;;;;;;;;;;;17.60;47.50;;;;;;4865043;29;20380;-88
2021/03/05 04:43:51;;;;;;;;;;;17.60;47.60;;;;;;4875740;29;19962;-87
2021/03/05 04:46:17;;;;;;;;;;;17.60;47.60;;;;;;4872584;29;20376;-87
2021/03/05 04:48:45;;;;;;;;;;;17.60;47.60;;;;;;4890417;29;20018;-87
2021/03/05 04:51:11;;;;;;;;;;;17.60;47.70;;;;;;4891269;29;19959;-86
2021/03/05 04:53:37;;;;;;;;;;;17.60;47.60;;;;;;4871752;29;19931;-87
2021/03/05 04:56:04;;;;;;;;;;;17.60;47.50;;;;;;4893143;29;19928;-87
2021/03/05 04:58:30;;;;;;;;;;;17.60;47.50;;;;;;4863994;29;19935;-89
2021/03/05 05:00:56;;;;;;;;;;;17.50;47.60;;;;;;4887067;29;19927;-89
2021/03/05 05:03:23;;;;;;;;;;;17.50;47.60;;;;;;4869964;29;20033;-89
2021/03/05 05:05:50;;;;;;;;;;;17.50;47.50;;;;;;4893148;29;21670;-90
2021/03/05 05:08:21;;;;;;;;;;;17.50;47.40;;;;;;4890148;29;19931;-89
2021/03/05 05:10:48;;;;;;;;;;;17.50;47.40;;;;;;4887478;29;19928;-89
2021/03/05 05:13:14;;;;;;;;;;;17.50;47.40;;;;;;4886660;29;19942;-89
2021/03/05 05:15:40;;;;;;;;;;;17.50;47.30;;;;;;4886352;29;19932;-88
2021/03/05 05:18:11;;;;;;;;;;;17.50;47.30;;;;;;4873328;29;19933;-90
2021/03/05 05:20:38;;;;;;;;;;;17.50;47.20;;;;;;4875247;29;20388;-89
2021/03/05 05:23:04;;;;;;;;;;;17.40;47.20;;;;;;4885716;29;20038;-88
2021/03/05 05:25:31;;;;;;;;;;;17.40;47.20;;;;;;4884625;29;20015;-89
2021/03/05 05:27:57;;;;;;;;;;;17.50;47.10;;;;;;4875428;29;19966;-89
2021/03/05 05:30:24;;;;;;;;;;;17.40;47.20;;;;;;4892635;29;19983;-89
2021/03/05 05:32:51;;;;;;;;;;;17.40;47.30;;;;;;4905560;29;20134;-89
2021/03/05 05:35:17;;;;;;;;;;;17.40;47.20;;;;;;4901480;29;19938;-90
2021/03/05 05:37:44;;;;;;;;;;;17.40;47.20;;;;;;4904819;29;26308;-88
2021/03/05 05:40:10;;;;;;;;;;;17.40;47.10;;;;;;4902240;29;19916;-89
2021/03/05 05:42:36;;;;;;;;;;;17.40;47.00;;;;;;4907619;29;20311;-89
2021/03/05 05:45:03;;;;;;;;;;;17.40;47.00;;;;;;4893392;29;20363;-90
2021/03/05 05:47:34;;;;;;;;;;;17.40;47.00;;;;;;4907559;29;19935;-92
2021/03/05 05:50:03;;;;;;;;;;;17.40;46.90;;;;;;4900265;29;19963;-95
2021/03/05 05:52:30;;;;;;;;;;;17.40;46.90;;;;;;4900857;29;20045;-90
2021/03/05 05:54:59;;;;;;;;;;;17.30;46.90;;;;;;4917096;29;19965;-94
2021/03/05 05:57:26;;;;;;;;;;;17.40;47.00;;;;;;4907004;29;19927;-90
2021/03/05 05:59:53;;;;;;;;;;;17.30;47.00;;;;;;4898463;29;19958;-92
2021/03/05 06:02:19;;;;;;;;;;;17.30;47.10;;;;;;4907778;29;19950;-90
2021/03/05 06:04:49;;;;;;;;;;;17.30;47.10;;;;;;4909589;29;19979;-90
2021/03/05 06:07:16;;;;;;;;;;;17.40;47.10;;;;;;4914930;29;19974;-87
2021/03/05 06:10:01;;;;;;;;;;;17.30;47.10;;;;;;4905501;29;19931;-92
2021/03/05 06:12:27;;;;;;;;;;;17.30;47.10;;;;;;4882877;29;19927;-93
2021/03/05 06:14:59;;;;;;;;;;;17.30;47.10;;;;;;4886144;29;20022;-85
2021/03/05 06:17:49;;;;;;;;;;;17.30;47.20;;;;;;4915296;29;19957;-89
2021/03/05 06:20:17;;;;;;;;;;;17.30;47.20;;;;;;4910804;29;19930;-92
2021/03/05 06:22:46;;;;;;;;;;;17.30;47.20;;;;;;4910952;29;19927;-88
2021/03/05 06:25:12;;;;;;;;;;;17.30;47.80;;;;;;4908747;29;19934;-90
2021/03/05 06:27:39;;;;;;;;;;;17.30;48.10;;;;;;4909959;29;19931;-89
2021/03/05 06:30:07;;;;;;;;;;;17.30;48.20;;;;;;4895156;29;19955;-88
2021/03/05 06:32:44;;;;;;;;;;;17.30;48.20;;;;;;4874760;29;20412;-95
2021/03/05 06:35:25;;;;;;;;;;;17.30;48.00;;;;;;4919145;29;19932;-96
2021/03/05 06:38:09;;;;;;;;;;;17.30;48.00;;;;;;4922986;29;19938;-95
2021/03/05 06:40:35;;;;;;;;;;;17.30;47.90;;;;;;4913108;29;20006;-93
2021/03/05 06:43:02;;;;;;;;;;;17.30;48.00;;;;;;4897420;29;19931;-93
2021/03/05 06:45:38;;;;;;;;;;;17.30;48.00;;;;;;4910334;29;20119;-92
2021/03/05 06:48:08;;;;;;;;;;;17.20;47.90;;;;;;4897118;29;19928;-90
2021/03/05 06:50:38;;;;;;;;;;;17.20;48.00;;;;;;4923778;29;20403;-95
2021/03/05 06:53:21;;;;;;;;;;;17.20;48.00;;;;;;4908319;29;19946;-90
2021/03/05 06:55:50;;;;;;;;;;;17.30;48.00;;;;;;4909018;29;20401;-88
2021/03/05 06:58:22;;;;;;;;;;;17.20;47.90;;;;;;4910590;29;19990;-91
2021/03/05 07:01:00;;;;;;;;;;;17.20;47.90;;;;;;4919061;29;21449;-89
2021/03/05 07:03:29;;;;;;;;;;;17.20;47.90;;;;;;4892101;29;20003;-89
2021/03/05 07:05:55;;;;;;;;;;;17.20;47.90;;;;;;4913976;29;19987;-89
2021/03/05 07:08:38;;;;;;;;;;;17.20;47.90;;;;;;4912506;29;19935;-88
2021/03/05 07:11:07;;;;;;;;;;;17.20;47.90;;;;;;4904098;29;20065;-90
2021/03/05 07:13:51;;;;;;;;;;;17.20;47.90;;;;;;4885473;29;20030;-89
2021/03/05 07:16:18;;;;;;;;;;;17.20;49.10;;;;;;4910425;29;19935;-85
2021/03/05 07:18:46;;;;;;;;;;;17.20;50.20;;;;;;4884900;29;19935;-87
2021/03/05 07:21:16;;;;;;;;;;;17.30;50.70;;;;;;4909688;29;19947;-84
2021/03/05 07:23:43;;;;;;;;;;;17.40;50.90;;;;;;4888743;29;19933;-84
2021/03/05 07:26:10;;;;;;;;;;;17.50;50.60;;;;;;4909255;29;19942;-83
2021/03/05 07:28:36;;;;;;;;;;;17.60;50.40;;;;;;4890894;29;19946;-89
2021/03/05 07:31:03;;;;;;;;;;;17.60;50.50;;;;;;4901409;29;19963;-91
2021/03/05 07:33:43;;;;;;;;;;;17.60;50.70;;;;;;4875140;29;19933;-87
2021/03/05 07:36:13;;;;;;;;;;;17.70;50.10;;;;;;4906765;29;19934;-87
2021/03/05 07:38:39;;;;;;;;;;;17.70;50.00;;;;;;4888819;29;19966;-93
2021/03/05 07:41:09;;;;;;;;;;;17.70;50.00;;;;;;4906225;29;19979;-88
2021/03/05 07:43:36;;;;;;;;;;;17.80;49.90;;;;;;4903891;29;19928;-86
2021/03/05 07:46:02;;;;;;;;;;;17.80;49.60;;;;;;4911361;29;19935;-90
2021/03/05 07:48:29;;;;;;;;;;;17.80;49.50;;;;;;4890220;29;19934;-89
2021/03/05 07:50:59;;;;;;;;;;;17.90;49.40;;;;;;4911914;29;19958;-88
2021/03/05 07:53:25;;;;;;;;;;;17.90;49.60;;;;;;4911442;29;21167;-83
2021/03/05 07:55:51;;;;;;;;;;;17.90;49.30;;;;;;4908526;29;19922;-83
2021/03/05 07:58:48;;;;;;;;;;;17.90;48.70;;;;;;4903315;29;19927;-84
2021/03/05 08:01:14;;;;;;;;;;;17.90;49.60;;;;;;4886785;29;20377;-84
2021/03/05 08:03:53;;;;;;;;;;;18.10;50.40;;;;;;4910804;29;19935;-84
2021/03/05 08:06:28;;;;;;;;;;;18.20;50.50;;;;;;4909453;29;20381;-84
2021/03/05 08:09:12;;;;;;;;;;;19.10;48.90;;;;;;4907769;29;21489;-84
2021/03/05 08:11:40;;;;;;;;;;;19.80;48.20;;;;;;4894872;29;19939;-83
2021/03/05 08:14:23;;;;;;;;;;;20.40;46.60;;;;;;4908165;29;19934;-84
2021/03/05 08:16:53;;;;;;;;;;;20.80;46.10;;;;;;4891872;29;20372;-83
2021/03/05 08:19:19;;;;;;;;;;;21.20;45.60;;;;;;4908350;29;19982;-84
2021/03/05 08:22:02;;;;;;;;;;;21.50;45.10;;;;;;4898016;29;20022;-86
2021/03/05 08:24:30;;;;;;;;;;;21.70;44.90;;;;;;4890664;29;20248;-83
2021/03/05 08:26:56;;;;;;;;;;;22.00;44.40;;;;;;4901020;29;20022;-86
2021/03/05 08:29:44;;;;;;;;;;;22.30;43.90;;;;;;4903172;29;19939;-85
2021/03/05 08:32:29;;;;;;;;;;;22.50;43.50;;;;;;4876916;29;20322;-83
2021/03/05 08:34:55;;;;;;;;;;;22.20;44.00;;;;;;4904564;29;21355;-87
2021/03/05 08:37:25;;;;;;;;;;;21.60;45.30;;;;;;4905874;29;19975;-90
2021/03/05 08:39:52;;;;;;;;;;;21.30;45.60;;;;;;4906928;29;22689;-84
2021/03/05 08:42:28;;;;;;;;;;;21.00;46.50;;;;;;4891330;29;19933;-88
2021/03/05 08:45:07;;;;;;;;;;;20.80;46.90;;;;;;4895867;29;20372;-85
2021/03/05 08:47:35;;;;;;;;;;;20.70;47.50;;;;;;4901828;29;19934;-84
2021/03/05 08:50:03;;;;;;;;;;;20.60;47.90;;;;;;4898616;29;19941;-85
2021/03/05 08:52:30;;;;;;;;;;;20.50;47.60;;;;;;4904501;29;19927;-90
2021/03/05 08:54:56;;;;;;;;;;;20.50;47.70;;;;;;4908338;29;19928;-87
2021/03/05 08:57:23;;;;;;;;;;;20.50;47.90;;;;;;4904649;29;19927;-85
2021/03/05 08:59:51;;;;;;;;;;;20.50;47.70;;;;;;4903959;29;20348;-85
2021/03/05 09:02:31;;;;;;;;;;;20.40;47.60;;;;;;4903177;29;20307;-86
2021/03/05 09:05:02;;;;;;;;;;;20.50;47.80;;;;;;4908099;29;19934;-87
2021/03/05 09:07:29;;;;;;;;;;;20.40;47.80;;;;;;4902944;29;19931;-87
2021/03/05 09:09:56;;;;;;;;;;;20.50;47.90;;;;;;4907816;29;19927;-86
2021/03/05 09:12:23;;;;;;;;;;;20.40;47.60;;;;;;4902603;29;19936;-85
2021/03/05 09:14:57;;;;;;;;;;;20.40;47.70;;;;;;4899964;29;20409;-85
2021/03/05 09:17:24;;;;;;;;;;;20.40;47.70;;;;;;4900481;29;21258;-84
2021/03/05 09:19:50;;;;;;;;;;;20.40;47.70;;;;;;4904721;29;21037;-87
2021/03/05 09:22:19;;;;;;;;;;;20.40;47.70;;;;;;4899196;29;19935;-86
2021/03/05 09:25:10;;;;;;;;;;;20.40;47.80;;;;;;4903063;29;19974;-85
2021/03/05 09:27:37;;;;;;;;;;;20.40;47.80;;;;;;4886499;29;19928;-91
2021/03/05 09:30:30;;;;;;;;;;;20.40;47.90;;;;;;4886298;29;19927;-90
2021/03/05 09:33:00;;;;;;;;;;;20.40;47.80;;;;;;4900335;29;19939;-89
2021/03/05 09:35:27;;;;;;;;;;;20.40;47.70;;;;;;4886159;29;19931;-85
2021/03/05 09:37:55;;;;;;;;;;;20.40;47.70;;;;;;4900660;29;20353;-80
2021/03/05 09:40:21;;;;;;;;;;;20.40;47.80;;;;;;4906045;29;20505;-81
2021/03/05 09:42:57;;;;;;;;;;;20.40;48.20;;;;;;4902459;29;19930;-84
2021/03/05 09:45:40;;;;;;;;;;;20.40;47.80;;;;;;4912215;29;20567;-83
2021/03/05 09:48:08;;;;;;;;;;;20.40;47.70;;;;;;4887199;29;20982;-82
2021/03/05 09:50:37;;;;;;;;;;;20.40;47.50;;;;;;4897258;29;19927;-86
2021/03/05 09:53:25;;;;;;;;;;;20.40;47.70;;;;;;4902866;29;19915;-81
2021/03/05 09:55:53;;;;;;;;;;;20.40;46.10;;;;;;4906826;29;19927;-84
2021/03/05 09:58:24;;;;;;;;;;;20.60;46.10;;;;;;4893743;29;20333;-86
2021/03/05 10:00:52;;;;;;;;;;;21.80;44.70;;;;;;4905912;29;20537;-87
2021/03/05 10:03:19;;;;;;;;;;;22.60;43.20;;;;;;4903959;29;19934;-84
2021/03/05 10:05:45;;;;;;;;;;;23.10;42.60;;;;;;4886438;29;19939;-87
2021/03/05 10:08:15;;;;;;;;;;;23.50;41.90;;;;;;4870744;29;19962;-85
2021/03/05 10:10:56;;;;;;;;;;;23.90;41.60;;;;;;4901193;29;19950;-85
2021/03/05 10:13:42;;;;;;;;;;;24.10;41.30;;;;;;4903829;29;19962;-88
2021/03/05 10:16:28;;;;;;;;;;;24.30;41.10;;;;;;4889812;29;21210;-86
2021/03/05 10:19:15;;;;;;;;;;;24.60;40.80;;;;;;4909402;29;20758;-86
2021/03/05 10:21:42;;;;;;;;;;;24.80;40.50;;;;;;4893018;29;19962;-86
2021/03/05 10:24:12;;;;;;;;;;;25.00;40.10;;;;;;4884851;29;19922;-85
2021/03/05 10:27:10;;;;;;;;;;;25.20;40.10;;;;;;4888801;29;20324;-83
2021/03/05 10:29:25;;;;;;;;;;;25.20;39.90;;;;;;4902223;29;20620;-88
2021/03/05 10:31:52;;;;;;;;;;;25.50;39.90;;;;;;4902458;29;19977;-84
2021/03/05 10:34:25;;;;;;;;;;;25.60;39.80;;;;;;4891251;29;20384;-82
2021/03/05 10:36:52;;;;;;;;;;;25.70;39.60;;;;;;4906206;29;20752;-86
2021/03/05 10:39:18;;;;;;;;;;;25.90;39.50;;;;;;4912763;29;20014;-87
2021/03/05 10:41:55;;;;;;;;;;;26.00;39.40;;;;;;4906230;29;19968;-86
2021/03/05 10:44:21;;;;;;;;;;;26.10;39.30;;;;;;4913585;29;19927;-86
2021/03/05 10:46:48;;;;;;;;;;;26.30;39.10;;;;;;4906668;29;19978;-86
2021/03/05 10:49:14;;;;;;;;;;;26.40;39.10;;;;;;4895215;29;20493;-87
2021/03/05 10:51:40;;;;;;;;;;;26.40;38.90;;;;;;4896446;29;19975;-85
2021/03/05 10:54:07;;;;;;;;;;;26.60;39.50;;;;;;4896706;29;19921;-86
2021/03/05 10:56:34;;;;;;;;;;;26.80;38.80;;;;;;4880742;29;19927;-88
2021/03/05 10:59:00;;;;;;;;;;;26.80;38.60;;;;;;4895413;29;19931;-86
2021/03/05 11:01:27;;;;;;;;;;;26.20;35.20;;;;;;4901883;29;19945;-85
2021/03/05 11:03:53;;;;;;;;;;;24.70;36.20;;;;;;4908140;29;20373;-84
2021/03/05 11:06:19;;;;;;;;;;;23.80;38.30;;;;;;4906833;29;19927;-85
2021/03/05 11:08:46;;;;;;;;;;;23.10;39.40;;;;;;4909648;29;19935;-85
2021/03/05 11:11:12;;;;;;;;;;;22.80;40.20;;;;;;4906976;29;20285;-84
2021/03/05 11:14:09;;;;;;;;;;;22.50;40.70;;;;;;4902753;29;19938;-83
2021/03/05 11:16:35;;;;;;;;;;;22.30;41.70;;;;;;4884782;29;19927;-84
2021/03/05 11:19:02;;;;;;;;;;;22.20;41.40;;;;;;4909344;29;19950;-84
2021/03/05 11:21:33;;;;;;;;;;;22.10;41.60;;;;;;4904425;29;19927;-84
2021/03/05 11:24:00;;;;;;;;;;;21.90;41.80;;;;;;4908682;29;19919;-85
2021/03/05 11:26:26;;;;;;;;;;;21.80;42.00;;;;;;4911188;29;19934;-83
2021/03/05 11:28:53;;;;;;;;;;;21.70;42.20;;;;;;4902864;29;19931;-84
2021/03/05 11:31:20;;;;;;;;;;;21.70;42.40;;;;;;4907234;29;19942;-83
2021/03/05 11:33:47;;;;;;;;;;;21.50;42.50;;;;;;4904216;29;20050;-83
2021/03/05 11:36:14;;;;;;;;;;;21.50;42.70;;;;;;4900533;29;19931;-85
2021/03/05 11:38:41;;;;;;;;;;;21.40;42.90;;;;;;4904184;29;19935;-85
2021/03/05 11:41:08;;;;;;;;;;;21.40;43.10;;;;;;4894782;29;19967;-85
2021/03/05 11:43:42;;;;;;;;;;;21.30;43.20;;;;;;4907193;29;19975;-85
2021/03/05 11:46:09;;;;;;;;;;;21.30;43.50;;;;;;4898160;29;19938;-85
2021/03/05 11:48:35;;;;;;;;;;;21.30;43.40;;;;;;4906800;29;19934;-85
2021/03/05 11:51:02;;;;;;;;;;;21.10;43.40;;;;;;4906794;29;19934;-85
2021/03/05 11:53:29;;;;;;;;;;;21.10;43.60;;;;;;4902608;29;19932;-85
2021/03/05 11:55:55;;;;;;;;;;;21.10;43.70;;;;;;4906854;29;19928;-85
2021/03/05 11:58:22;;;;;;;;;;;21.00;43.80;;;;;;4906428;29;20496;-85
2021/03/05 12:00:49;;;;;;;;;;;21.00;44.00;;;;;;4888598;29;19939;-85
2021/03/05 12:03:16;;;;;;;;;;;20.90;44.00;;;;;;4904524;29;19943;-85
2021/03/05 12:05:42;;;;;;;;;;;20.80;44.10;;;;;;4893783;29;20013;-85
2021/03/05 12:08:09;;;;;;;;;;;20.70;44.30;;;;;;4906859;29;19927;-84
2021/03/05 12:10:37;;;;;;;;;;;20.70;44.40;;;;;;4906897;29;21607;-85
2021/03/05 12:13:03;;;;;;;;;;;20.60;44.50;;;;;;4911461;29;19957;-85
2021/03/05 12:15:29;;;;;;;;;;;20.60;44.60;;;;;;4891867;29;20685;-85
2021/03/05 12:17:57;;;;;;;;;;;20.60;44.80;;;;;;4909119;29;19942;-86
2021/03/05 12:20:25;;;;;;;;;;;20.50;44.80;;;;;;4906208;29;19938;-86
2021/03/05 12:22:52;;;;;;;;;;;20.50;45.00;;;;;;4902142;29;20336;-85
2021/03/05 12:25:19;;;;;;;;;;;20.40;45.00;;;;;;4889485;29;20028;-85
2021/03/05 12:27:45;;;;;;;;;;;20.40;45.80;;;;;;4891533;29;19938;-85
2021/03/05 12:30:11;;;;;;;;;;;20.40;45.10;;;;;;4882188;29;19927;-85
2021/03/05 12:32:45;;;;;;;;;;;20.20;44.80;;;;;;4910722;29;19975;-86
2021/03/05 12:35:13;;;;;;;;;;;20.20;45.10;;;;;;4892862;29;19931;-85
2021/03/05 12:37:39;;;;;;;;;;;20.20;45.30;;;;;;4905946;29;19927;-85
2021/03/05 12:40:07;;;;;;;;;;;20.20;45.60;;;;;;4903875;29;19931;-85
2021/03/05 12:42:34;;;;;;;;;;;20.10;45.60;;;;;;4910078;29;19931;-87
2021/03/05 12:45:04;;;;;;;;;;;20.10;45.70;;;;;;4900466;29;19935;-86
2021/03/05 12:47:31;;;;;;;;;;;20.10;45.90;;;;;;4891574;29;19931;-84
2021/03/05 12:49:58;;;;;;;;;;;20.10;46.00;;;;;;4903941;29;20029;-85
2021/03/05 12:52:24;;;;;;;;;;;20.00;46.00;;;;;;4903980;29;20340;-84
2021/03/05 12:54:55;;;;;;;;;;;20.00;46.00;;;;;;4907107;29;22142;-85
2021/03/05 12:57:21;;;;;;;;;;;20.00;46.30;;;;;;4906611;29;20355;-85
2021/03/05 12:59:48;;;;;;;;;;;19.90;46.30;;;;;;4902143;29;19928;-88
2021/03/05 13:02:14;;;;;;;;;;;19.90;46.10;;;;;;4900765;29;19934;-84
2021/03/05 13:04:41;;;;;;;;;;;19.90;45.80;;;;;;4896085;29;19948;-83
2021/03/05 13:07:07;;;;;;;;;;;19.80;46.00;;;;;;4906842;29;20010;-84
2021/03/05 13:09:33;;;;;;;;;;;19.80;46.40;;;;;;4906744;29;19935;-83
2021/03/05 13:12:00;;;;;;;;;;;19.80;46.30;;;;;;4904529;29;19922;-85
2021/03/05 13:14:27;;;;;;;;;;;19.80;46.50;;;;;;4909446;29;19931;-85
2021/03/05 13:16:55;;;;;;;;;;;19.70;46.60;;;;;;4892709;29;19928;-95
2021/03/05 13:19:43;;;;;;;;;;;19.70;46.70;;;;;;4888515;29;21913;-95
2021/03/05 13:22:10;;;;;;;;;;;19.70;46.70;;;;;;4895134;29;19976;-86
2021/03/05 13:24:36;;;;;;;;;;;19.70;46.70;;;;;;4903242;29;19927;-87
2021/03/05 13:27:04;;;;;;;;;;;19.70;47.50;;;;;;4902892;29;19934;-94
2021/03/05 13:29:31;;;;;;;;;;;19.70;47.10;;;;;;4885611;29;19935;-90
2021/03/05 13:31:57;;;;;;;;;;;19.70;48.00;;;;;;4883546;29;20022;-88
2021/03/05 13:34:23;;;;;;;;;;;19.80;48.40;;;;;;4877372;29;19931;-93
2021/03/05 13:36:50;;;;;;;;;;;19.90;48.60;;;;;;4889238;29;20023;-93
2021/03/05 13:39:21;;;;;;;;;;;19.90;48.60;;;;;;4889315;29;19959;-92
2021/03/05 13:41:48;;;;;;;;;;;20.00;48.30;;;;;;4870798;29;19935;-89
2021/03/05 13:44:14;;;;;;;;;;;20.00;48.20;;;;;;4882079;29;19931;-83
2021/03/05 13:46:40;;;;;;;;;;;20.00;48.10;;;;;;4895294;29;19994;-92
2021/03/05 13:49:17;;;;;;;;;;;20.10;48.40;;;;;;4877894;29;19927;-95
2021/03/05 13:51:44;;;;;;;;;;;20.10;48.60;;;;;;4886401;29;19938;-87
2021/03/05 13:54:11;;;;;;;;;;;20.10;48.40;;;;;;4884481;29;19928;-85
2021/03/05 13:56:40;;;;;;;;;;;20.10;48.20;;;;;;4881082;29;20042;-87
2021/03/05 13:59:11;;;;;;;;;;;20.10;48.30;;;;;;4863250;29;20448;-86
2021/03/05 14:01:38;;;;;;;;;;;20.10;48.20;;;;;;4875386;29;19932;-86
2021/03/05 14:04:04;;;;;;;;;;;20.30;48.10;;;;;;4884876;29;20400;-92
2021/03/05 14:06:30;;;;;;;;;;;20.30;47.80;;;;;;4890497;29;19974;-88
2021/03/05 14:08:57;;;;;;;;;;;20.40;48.50;;;;;;4883872;29;19931;-84
2021/03/05 14:11:23;;;;;;;;;;;20.40;48.60;;;;;;4892385;29;19939;-91
2021/03/05 14:13:50;;;;;;;;;;;20.50;48.80;;;;;;4864605;29;19936;-88
2021/03/05 14:16:17;;;;;;;;;;;20.60;49.00;;;;;;4893003;29;19935;-90
2021/03/05 14:18:45;;;;;;;;;;;20.60;49.20;;;;;;4875063;29;20006;-90
2021/03/05 14:21:11;;;;;;;;;;;20.70;49.20;;;;;;4879874;29;20022;-89
2021/03/05 14:23:38;;;;;;;;;;;20.80;49.30;;;;;;4886106;29;19942;-90
2021/03/05 14:26:04;;;;;;;;;;;20.80;49.20;;;;;;4863980;29;19935;-86
2021/03/05 14:28:31;;;;;;;;;;;20.90;49.20;;;;;;4899876;29;19966;-88